sensor_id;sensor_type;location;lat;lon;timestamp;P1;durP1;ratioP1;P2;durP2;ratioP2
19189;SDS011;9727;50.200;19.038;2023-08-21T00:00:06;20.58;;;16.15;;
19189;SDS011;9727;50.200;19.038;2023-08-21T00:02:38;17.38;;;15.23;;
19189;SDS011;9727;50.200;19.038;2023-08-21T00:05:05;17.67;;;15.82;;
19189;SDS011;9727;50.200;19.038;2023-08-21T00:07:32;17.60;;;15.75;;
19189;SDS011;9727;50.200;19.038;2023-08-21T00:10:02;17.98;;;16.00;;
19189;SDS011;9727;50.200;19.038;2023-08-21T00:12:28;17.60;;;15.70;;
19189;SDS011;9727;50.200;19.038;2023-08-21T00:14:56;18.20;;;16.33;;
19189;SDS011;9727;50.200;19.038;2023-08-21T00:17:23;17.35;;;15.05;;
19189;SDS011;9727;50.200;19.038;2023-08-21T00:19:50;17.67;;;15.77;;
19189;SDS011;9727;50.200;19.038;2023-08-21T00:22:16;17.45;;;15.73;;
19189;SDS011;9727;50.200;19.038;2023-08-21T00:24:43;17.55;;;15.70;;
19189;SDS011;9727;50.200;19.038;2023-08-21T00:27:09;17.60;;;15.73;;
19189;SDS011;9727;50.200;19.038;2023-08-21T00:29:39;22.38;;;15.43;;
19189;SDS011;9727;50.200;19.038;2023-08-21T00:32:07;19.00;;;16.80;;
19189;SDS011;9727;50.200;19.038;2023-08-21T00:34:35;17.38;;;15.65;;
19189;SDS011;9727;50.200;19.038;2023-08-21T00:37:03;21.77;;;17.67;;
19189;SDS011;9727;50.200;19.038;2023-08-21T00:39:30;19.98;;;17.50;;
19189;SDS011;9727;50.200;19.038;2023-08-21T00:41:57;23.15;;;17.08;;
19189;SDS011;9727;50.200;19.038;2023-08-21T00:44:23;18.45;;;16.58;;
19189;SDS011;9727;50.200;19.038;2023-08-21T00:46:50;20.45;;;17.67;;
19189;SDS011;9727;50.200;19.038;2023-08-21T00:49:18;20.48;;;18.30;;
19189;SDS011;9727;50.200;19.038;2023-08-21T00:51:45;20.48;;;18.27;;
19189;SDS011;9727;50.200;19.038;2023-08-21T00:54:12;20.63;;;18.42;;
19189;SDS011;9727;50.200;19.038;2023-08-21T00:56:39;21.77;;;19.40;;
19189;SDS011;9727;50.200;19.038;2023-08-21T00:59:05;21.70;;;19.50;;
19189;SDS011;9727;50.200;19.038;2023-08-21T01:01:32;22.52;;;19.08;;
19189;SDS011;9727;50.200;19.038;2023-08-21T01:04:03;20.70;;;18.52;;
19189;SDS011;9727;50.200;19.038;2023-08-21T01:06:31;20.88;;;18.42;;
19189;SDS011;9727;50.200;19.038;2023-08-21T01:09:06;21.98;;;18.92;;
19189;SDS011;9727;50.200;19.038;2023-08-21T01:11:39;20.63;;;18.33;;
19189;SDS011;9727;50.200;19.038;2023-08-21T01:14:09;21.27;;;18.05;;
19189;SDS011;9727;50.200;19.038;2023-08-21T01:16:37;20.33;;;18.20;;
19189;SDS011;9727;50.200;19.038;2023-08-21T01:19:04;21.60;;;19.17;;
19189;SDS011;9727;50.200;19.038;2023-08-21T01:21:39;21.17;;;18.75;;
19189;SDS011;9727;50.200;19.038;2023-08-21T01:24:07;21.50;;;18.88;;
19189;SDS011;9727;50.200;19.038;2023-08-21T01:26:35;20.40;;;18.40;;
19189;SDS011;9727;50.200;19.038;2023-08-21T01:29:05;25.23;;;18.55;;
19189;SDS011;9727;50.200;19.038;2023-08-21T01:31:32;24.02;;;18.90;;
19189;SDS011;9727;50.200;19.038;2023-08-21T01:34:05;21.48;;;18.90;;
19189;SDS011;9727;50.200;19.038;2023-08-21T01:36:32;21.17;;;18.98;;
19189;SDS011;9727;50.200;19.038;2023-08-21T01:39:09;22.05;;;19.70;;
19189;SDS011;9727;50.200;19.038;2023-08-21T01:41:39;20.45;;;18.42;;
19189;SDS011;9727;50.200;19.038;2023-08-21T01:44:05;20.55;;;18.55;;
19189;SDS011;9727;50.200;19.038;2023-08-21T01:46:32;23.48;;;19.17;;
19189;SDS011;9727;50.200;19.038;2023-08-21T01:49:03;24.35;;;20.20;;
19189;SDS011;9727;50.200;19.038;2023-08-21T01:51:30;21.73;;;19.55;;
19189;SDS011;9727;50.200;19.038;2023-08-21T01:53:56;21.90;;;19.65;;
19189;SDS011;9727;50.200;19.038;2023-08-21T01:56:24;22.17;;;19.55;;
19189;SDS011;9727;50.200;19.038;2023-08-21T01:58:51;20.33;;;18.23;;
19189;SDS011;9727;50.200;19.038;2023-08-21T02:01:17;22.48;;;19.70;;
19189;SDS011;9727;50.200;19.038;2023-08-21T02:03:44;24.75;;;19.48;;
19189;SDS011;9727;50.200;19.038;2023-08-21T02:06:11;22.27;;;19.40;;
19189;SDS011;9727;50.200;19.038;2023-08-21T02:08:37;22.45;;;18.85;;
19189;SDS011;9727;50.200;19.038;2023-08-21T02:11:04;21.92;;;19.05;;
19189;SDS011;9727;50.200;19.038;2023-08-21T02:13:32;22.65;;;19.80;;
19189;SDS011;9727;50.200;19.038;2023-08-21T02:16:08;22.05;;;19.52;;
19189;SDS011;9727;50.200;19.038;2023-08-21T02:18:37;24.63;;;19.80;;
19189;SDS011;9727;50.200;19.038;2023-08-21T02:21:03;21.63;;;19.20;;
19189;SDS011;9727;50.200;19.038;2023-08-21T02:23:30;21.85;;;19.65;;
19189;SDS011;9727;50.200;19.038;2023-08-21T02:25:56;20.77;;;18.50;;
19189;SDS011;9727;50.200;19.038;2023-08-21T02:28:23;23.05;;;19.08;;
19189;SDS011;9727;50.200;19.038;2023-08-21T02:30:51;21.20;;;18.83;;
19189;SDS011;9727;50.200;19.038;2023-08-21T02:33:17;22.40;;;20.10;;
19189;SDS011;9727;50.200;19.038;2023-08-21T02:35:44;21.88;;;19.42;;
19189;SDS011;9727;50.200;19.038;2023-08-21T02:38:10;24.77;;;20.05;;
19189;SDS011;9727;50.200;19.038;2023-08-21T02:40:37;22.85;;;20.23;;
19189;SDS011;9727;50.200;19.038;2023-08-21T02:43:04;22.38;;;20.15;;
19189;SDS011;9727;50.200;19.038;2023-08-21T02:45:30;21.92;;;19.58;;
19189;SDS011;9727;50.200;19.038;2023-08-21T02:47:58;20.85;;;18.63;;
19189;SDS011;9727;50.200;19.038;2023-08-21T02:50:25;24.48;;;20.27;;
19189;SDS011;9727;50.200;19.038;2023-08-21T02:52:51;22.63;;;19.42;;
19189;SDS011;9727;50.200;19.038;2023-08-21T02:55:18;22.95;;;20.00;;
19189;SDS011;9727;50.200;19.038;2023-08-21T02:57:45;23.25;;;19.77;;
19189;SDS011;9727;50.200;19.038;2023-08-21T03:00:12;26.35;;;20.63;;
19189;SDS011;9727;50.200;19.038;2023-08-21T03:02:39;23.13;;;20.65;;
19189;SDS011;9727;50.200;19.038;2023-08-21T03:05:10;21.88;;;19.67;;
19189;SDS011;9727;50.200;19.038;2023-08-21T03:07:37;23.17;;;19.88;;
19189;SDS011;9727;50.200;19.038;2023-08-21T03:10:04;23.58;;;21.08;;
19189;SDS011;9727;50.200;19.038;2023-08-21T03:12:31;23.65;;;20.88;;
19189;SDS011;9727;50.200;19.038;2023-08-21T03:14:57;24.88;;;22.27;;
19189;SDS011;9727;50.200;19.038;2023-08-21T03:17:24;22.90;;;20.50;;
19189;SDS011;9727;50.200;19.038;2023-08-21T03:19:51;26.90;;;21.60;;
19189;SDS011;9727;50.200;19.038;2023-08-21T03:22:18;23.88;;;20.55;;
19189;SDS011;9727;50.200;19.038;2023-08-21T03:24:45;23.80;;;21.17;;
19189;SDS011;9727;50.200;19.038;2023-08-21T03:27:15;24.08;;;20.50;;
19189;SDS011;9727;50.200;19.038;2023-08-21T03:29:42;22.52;;;20.13;;
19189;SDS011;9727;50.200;19.038;2023-08-21T03:32:13;23.58;;;21.08;;
19189;SDS011;9727;50.200;19.038;2023-08-21T03:34:40;23.90;;;21.02;;
19189;SDS011;9727;50.200;19.038;2023-08-21T03:37:06;27.50;;;21.60;;
19189;SDS011;9727;50.200;19.038;2023-08-21T03:39:37;25.67;;;21.92;;
19189;SDS011;9727;50.200;19.038;2023-08-21T03:42:04;25.60;;;22.92;;
19189;SDS011;9727;50.200;19.038;2023-08-21T03:44:31;27.45;;;22.23;;
19189;SDS011;9727;50.200;19.038;2023-08-21T03:47:01;23.90;;;21.08;;
19189;SDS011;9727;50.200;19.038;2023-08-21T03:49:27;25.73;;;21.48;;
19189;SDS011;9727;50.200;19.038;2023-08-21T03:51:54;23.15;;;20.73;;
19189;SDS011;9727;50.200;19.038;2023-08-21T03:54:20;24.70;;;21.63;;
19189;SDS011;9727;50.200;19.038;2023-08-21T03:56:49;29.33;;;23.55;;
19189;SDS011;9727;50.200;19.038;2023-08-21T03:59:15;31.42;;;23.35;;
19189;SDS011;9727;50.200;19.038;2023-08-21T04:01:42;29.30;;;23.58;;
19189;SDS011;9727;50.200;19.038;2023-08-21T04:04:08;26.42;;;23.33;;
19189;SDS011;9727;50.200;19.038;2023-08-21T04:06:36;26.77;;;23.33;;
19189;SDS011;9727;50.200;19.038;2023-08-21T04:09:06;29.63;;;23.27;;
19189;SDS011;9727;50.200;19.038;2023-08-21T04:11:32;28.42;;;23.15;;
19189;SDS011;9727;50.200;19.038;2023-08-21T04:14:03;25.65;;;22.85;;
19189;SDS011;9727;50.200;19.038;2023-08-21T04:16:30;26.13;;;22.95;;
19189;SDS011;9727;50.200;19.038;2023-08-21T04:18:56;26.80;;;23.02;;
19189;SDS011;9727;50.200;19.038;2023-08-21T04:21:24;29.02;;;22.88;;
19189;SDS011;9727;50.200;19.038;2023-08-21T04:23:50;26.67;;;23.88;;
19189;SDS011;9727;50.200;19.038;2023-08-21T04:26:18;26.70;;;23.73;;
19189;SDS011;9727;50.200;19.038;2023-08-21T04:28:45;24.98;;;22.27;;
19189;SDS011;9727;50.200;19.038;2023-08-21T04:31:14;26.27;;;21.80;;
19189;SDS011;9727;50.200;19.038;2023-08-21T04:33:41;26.92;;;21.77;;
19189;SDS011;9727;50.200;19.038;2023-08-21T04:36:08;25.20;;;21.33;;
19189;SDS011;9727;50.200;19.038;2023-08-21T04:38:40;30.65;;;22.17;;
19189;SDS011;9727;50.200;19.038;2023-08-21T04:41:07;28.40;;;22.88;;
19189;SDS011;9727;50.200;19.038;2023-08-21T04:43:38;27.83;;;24.40;;
19189;SDS011;9727;50.200;19.038;2023-08-21T04:46:06;34.33;;;23.40;;
19189;SDS011;9727;50.200;19.038;2023-08-21T04:48:37;34.75;;;23.02;;
19189;SDS011;9727;50.200;19.038;2023-08-21T04:51:04;26.70;;;20.50;;
19189;SDS011;9727;50.200;19.038;2023-08-21T04:53:30;25.00;;;20.70;;
19189;SDS011;9727;50.200;19.038;2023-08-21T04:55:58;27.73;;;20.40;;
19189;SDS011;9727;50.200;19.038;2023-08-21T04:58:25;22.58;;;20.20;;
19189;SDS011;9727;50.200;19.038;2023-08-21T05:00:53;22.38;;;19.52;;
19189;SDS011;9727;50.200;19.038;2023-08-21T05:03:20;25.35;;;20.20;;
19189;SDS011;9727;50.200;19.038;2023-08-21T05:05:55;20.50;;;18.40;;
19189;SDS011;9727;50.200;19.038;2023-08-21T05:08:22;22.83;;;19.13;;
19189;SDS011;9727;50.200;19.038;2023-08-21T05:10:53;22.65;;;18.67;;
19189;SDS011;9727;50.200;19.038;2023-08-21T05:13:23;21.25;;;18.95;;
19189;SDS011;9727;50.200;19.038;2023-08-21T05:15:53;22.00;;;19.08;;
19189;SDS011;9727;50.200;19.038;2023-08-21T05:18:20;22.95;;;19.00;;
19189;SDS011;9727;50.200;19.038;2023-08-21T05:20:47;22.50;;;19.02;;
19189;SDS011;9727;50.200;19.038;2023-08-21T05:23:21;21.52;;;18.83;;
19189;SDS011;9727;50.200;19.038;2023-08-21T05:25:49;22.88;;;19.58;;
19189;SDS011;9727;50.200;19.038;2023-08-21T05:28:15;22.17;;;18.23;;
19189;SDS011;9727;50.200;19.038;2023-08-21T05:30:42;19.52;;;17.42;;
19189;SDS011;9727;50.200;19.038;2023-08-21T05:33:09;20.05;;;17.20;;
19189;SDS011;9727;50.200;19.038;2023-08-21T05:35:45;20.00;;;17.88;;
19189;SDS011;9727;50.200;19.038;2023-08-21T05:38:11;19.35;;;16.63;;
19189;SDS011;9727;50.200;19.038;2023-08-21T05:40:41;20.70;;;15.98;;
19189;SDS011;9727;50.200;19.038;2023-08-21T05:43:08;19.55;;;17.45;;
19189;SDS011;9727;50.200;19.038;2023-08-21T05:45:40;18.48;;;16.50;;
19189;SDS011;9727;50.200;19.038;2023-08-21T05:48:07;20.10;;;17.67;;
19189;SDS011;9727;50.200;19.038;2023-08-21T05:50:37;19.25;;;16.50;;
19189;SDS011;9727;50.200;19.038;2023-08-21T05:53:12;21.25;;;16.38;;
19189;SDS011;9727;50.200;19.038;2023-08-21T05:55:39;17.90;;;15.93;;
19189;SDS011;9727;50.200;19.038;2023-08-21T05:58:07;17.05;;;15.30;;
19189;SDS011;9727;50.200;19.038;2023-08-21T06:00:38;18.00;;;15.68;;
19189;SDS011;9727;50.200;19.038;2023-08-21T06:03:04;19.02;;;16.67;;
19189;SDS011;9727;50.200;19.038;2023-08-21T06:05:31;17.27;;;14.95;;
19189;SDS011;9727;50.200;19.038;2023-08-21T06:07:57;17.65;;;15.63;;
19189;SDS011;9727;50.200;19.038;2023-08-21T06:10:24;17.20;;;14.68;;
19189;SDS011;9727;50.200;19.038;2023-08-21T06:12:51;17.23;;;15.48;;
19189;SDS011;9727;50.200;19.038;2023-08-21T06:15:20;19.20;;;15.85;;
19189;SDS011;9727;50.200;19.038;2023-08-21T06:17:55;17.80;;;15.88;;
19189;SDS011;9727;50.200;19.038;2023-08-21T06:20:22;17.25;;;15.55;;
19189;SDS011;9727;50.200;19.038;2023-08-21T06:22:49;17.98;;;16.13;;
19189;SDS011;9727;50.200;19.038;2023-08-21T06:25:15;17.88;;;15.25;;
19189;SDS011;9727;50.200;19.038;2023-08-21T06:27:44;20.88;;;15.25;;
19189;SDS011;9727;50.200;19.038;2023-08-21T06:30:11;16.85;;;15.05;;
19189;SDS011;9727;50.200;19.038;2023-08-21T06:32:43;18.00;;;16.05;;
19189;SDS011;9727;50.200;19.038;2023-08-21T06:35:10;17.80;;;16.00;;
19189;SDS011;9727;50.200;19.038;2023-08-21T06:37:39;17.73;;;15.77;;
19189;SDS011;9727;50.200;19.038;2023-08-21T06:40:07;24.13;;;16.15;;
19189;SDS011;9727;50.200;19.038;2023-08-21T06:42:38;18.27;;;16.38;;
19189;SDS011;9727;50.200;19.038;2023-08-21T06:45:06;20.05;;;17.15;;
19189;SDS011;9727;50.200;19.038;2023-08-21T06:47:43;19.10;;;17.15;;
19189;SDS011;9727;50.200;19.038;2023-08-21T06:50:10;20.65;;;17.40;;
19189;SDS011;9727;50.200;19.038;2023-08-21T06:52:39;20.13;;;17.77;;
19189;SDS011;9727;50.200;19.038;2023-08-21T06:55:06;19.25;;;16.60;;
19189;SDS011;9727;50.200;19.038;2023-08-21T06:57:39;22.20;;;17.60;;
19189;SDS011;9727;50.200;19.038;2023-08-21T07:00:06;21.88;;;18.42;;
19189;SDS011;9727;50.200;19.038;2023-08-21T07:02:38;18.70;;;16.80;;
19189;SDS011;9727;50.200;19.038;2023-08-21T07:05:06;20.52;;;18.10;;
19189;SDS011;9727;50.200;19.038;2023-08-21T07:07:42;21.92;;;18.95;;
19189;SDS011;9727;50.200;19.038;2023-08-21T07:10:09;21.88;;;18.60;;
19189;SDS011;9727;50.200;19.038;2023-08-21T07:12:39;22.70;;;18.33;;
19189;SDS011;9727;50.200;19.038;2023-08-21T07:15:06;22.23;;;16.92;;
19189;SDS011;9727;50.200;19.038;2023-08-21T07:17:39;25.13;;;18.05;;
19189;SDS011;9727;50.200;19.038;2023-08-21T07:20:07;22.30;;;18.33;;
19189;SDS011;9727;50.200;19.038;2023-08-21T07:22:37;21.35;;;16.92;;
19189;SDS011;9727;50.200;19.038;2023-08-21T07:25:04;30.30;;;18.00;;
19189;SDS011;9727;50.200;19.038;2023-08-21T07:27:31;26.23;;;18.88;;
19189;SDS011;9727;50.200;19.038;2023-08-21T07:30:09;26.23;;;18.38;;
19189;SDS011;9727;50.200;19.038;2023-08-21T07:32:42;24.65;;;17.83;;
19189;SDS011;9727;50.200;19.038;2023-08-21T07:35:10;21.80;;;17.00;;
19189;SDS011;9727;50.200;19.038;2023-08-21T07:37:39;20.85;;;18.05;;
19189;SDS011;9727;50.200;19.038;2023-08-21T07:40:07;24.73;;;17.63;;
19189;SDS011;9727;50.200;19.038;2023-08-21T07:42:39;23.05;;;18.38;;
19189;SDS011;9727;50.200;19.038;2023-08-21T07:45:06;25.98;;;18.02;;
19189;SDS011;9727;50.200;19.038;2023-08-21T07:47:41;21.38;;;17.65;;
19189;SDS011;9727;50.200;19.038;2023-08-21T07:50:10;21.25;;;17.00;;
19189;SDS011;9727;50.200;19.038;2023-08-21T07:52:40;23.73;;;18.58;;
19189;SDS011;9727;50.200;19.038;2023-08-21T07:55:09;23.10;;;17.10;;
19189;SDS011;9727;50.200;19.038;2023-08-21T07:57:39;23.85;;;18.67;;
19189;SDS011;9727;50.200;19.038;2023-08-21T08:00:06;21.27;;;16.75;;
19189;SDS011;9727;50.200;19.038;2023-08-21T08:02:42;24.05;;;17.95;;
19189;SDS011;9727;50.200;19.038;2023-08-21T08:05:11;24.88;;;17.77;;
19189;SDS011;9727;50.200;19.038;2023-08-21T08:07:41;23.35;;;17.30;;
19189;SDS011;9727;50.200;19.038;2023-08-21T08:10:08;21.55;;;17.52;;
19189;SDS011;9727;50.200;19.038;2023-08-21T08:12:40;22.33;;;18.80;;
19189;SDS011;9727;50.200;19.038;2023-08-21T08:15:07;23.75;;;18.40;;
19189;SDS011;9727;50.200;19.038;2023-08-21T08:17:37;24.45;;;19.92;;
19189;SDS011;9727;50.200;19.038;2023-08-21T08:20:05;19.58;;;17.52;;
19189;SDS011;9727;50.200;19.038;2023-08-21T08:22:41;23.65;;;19.48;;
19189;SDS011;9727;50.200;19.038;2023-08-21T08:25:07;24.00;;;18.02;;
19189;SDS011;9727;50.200;19.038;2023-08-21T08:27:37;23.63;;;17.40;;
19189;SDS011;9727;50.200;19.038;2023-08-21T08:30:04;19.92;;;17.67;;
19189;SDS011;9727;50.200;19.038;2023-08-21T08:32:31;26.55;;;20.10;;
19189;SDS011;9727;50.200;19.038;2023-08-21T08:34:58;23.48;;;18.38;;
19189;SDS011;9727;50.200;19.038;2023-08-21T08:37:24;22.83;;;17.35;;
19189;SDS011;9727;50.200;19.038;2023-08-21T08:39:53;19.63;;;17.33;;
19189;SDS011;9727;50.200;19.038;2023-08-21T08:42:19;20.90;;;18.20;;
19189;SDS011;9727;50.200;19.038;2023-08-21T08:44:46;21.83;;;17.90;;
19189;SDS011;9727;50.200;19.038;2023-08-21T08:47:13;20.48;;;17.15;;
19189;SDS011;9727;50.200;19.038;2023-08-21T08:49:39;23.52;;;17.70;;
19189;SDS011;9727;50.200;19.038;2023-08-21T08:52:06;23.52;;;17.50;;
19189;SDS011;9727;50.200;19.038;2023-08-21T08:54:37;20.75;;;18.15;;
19189;SDS011;9727;50.200;19.038;2023-08-21T08:57:05;22.70;;;18.25;;
19189;SDS011;9727;50.200;19.038;2023-08-21T08:59:32;20.65;;;18.45;;
19189;SDS011;9727;50.200;19.038;2023-08-21T09:02:11;20.05;;;16.70;;
19189;SDS011;9727;50.200;19.038;2023-08-21T09:04:37;19.10;;;17.05;;
19189;SDS011;9727;50.200;19.038;2023-08-21T09:07:07;24.52;;;18.73;;
19189;SDS011;9727;50.200;19.038;2023-08-21T09:09:40;24.23;;;18.35;;
19189;SDS011;9727;50.200;19.038;2023-08-21T09:12:11;24.23;;;18.38;;
19189;SDS011;9727;50.200;19.038;2023-08-21T09:14:38;23.20;;;18.88;;
19189;SDS011;9727;50.200;19.038;2023-08-21T09:17:05;21.02;;;18.27;;
19189;SDS011;9727;50.200;19.038;2023-08-21T09:19:31;18.02;;;16.17;;
19189;SDS011;9727;50.200;19.038;2023-08-21T09:22:07;19.38;;;15.98;;
19189;SDS011;9727;50.200;19.038;2023-08-21T09:24:38;20.98;;;17.67;;
19189;SDS011;9727;50.200;19.038;2023-08-21T09:27:12;22.30;;;19.02;;
19189;SDS011;9727;50.200;19.038;2023-08-21T09:29:39;18.58;;;16.67;;
19189;SDS011;9727;50.200;19.038;2023-08-21T09:32:07;18.90;;;16.90;;
19189;SDS011;9727;50.200;19.038;2023-08-21T09:34:42;19.08;;;16.63;;
19189;SDS011;9727;50.200;19.038;2023-08-21T09:37:09;24.23;;;18.23;;
19189;SDS011;9727;50.200;19.038;2023-08-21T09:39:37;21.55;;;16.98;;
19189;SDS011;9727;50.200;19.038;2023-08-21T09:42:10;17.13;;;15.32;;
19189;SDS011;9727;50.200;19.038;2023-08-21T09:44:39;20.23;;;17.80;;
19189;SDS011;9727;50.200;19.038;2023-08-21T09:47:07;19.88;;;15.82;;
19189;SDS011;9727;50.200;19.038;2023-08-21T09:49:43;22.27;;;18.83;;
19189;SDS011;9727;50.200;19.038;2023-08-21T09:52:10;18.33;;;16.50;;
19189;SDS011;9727;50.200;19.038;2023-08-21T09:54:50;22.08;;;16.38;;
19189;SDS011;9727;50.200;19.038;2023-08-21T09:57:24;18.77;;;16.38;;
19189;SDS011;9727;50.200;19.038;2023-08-21T09:59:54;17.38;;;15.57;;
19189;SDS011;9727;50.200;19.038;2023-08-21T10:02:21;17.17;;;15.40;;
19189;SDS011;9727;50.200;19.038;2023-08-21T10:04:47;21.88;;;15.90;;
19189;SDS011;9727;50.200;19.038;2023-08-21T10:07:24;18.45;;;16.50;;
19189;SDS011;9727;50.200;19.038;2023-08-21T10:09:56;20.38;;;16.88;;
19189;SDS011;9727;50.200;19.038;2023-08-21T10:12:24;18.67;;;16.75;;
19189;SDS011;9727;50.200;19.038;2023-08-21T10:14:55;16.35;;;14.65;;
19189;SDS011;9727;50.200;19.038;2023-08-21T10:17:21;15.98;;;14.27;;
19189;SDS011;9727;50.200;19.038;2023-08-21T10:19:50;16.58;;;14.50;;
19189;SDS011;9727;50.200;19.038;2023-08-21T10:22:21;17.38;;;14.55;;
19189;SDS011;9727;50.200;19.038;2023-08-21T10:25:13;18.40;;;13.80;;
19189;SDS011;9727;50.200;19.038;2023-08-21T10:27:40;15.82;;;13.60;;
19189;SDS011;9727;50.200;19.038;2023-08-21T10:30:12;17.75;;;13.82;;
19189;SDS011;9727;50.200;19.038;2023-08-21T10:32:45;17.42;;;14.85;;
19189;SDS011;9727;50.200;19.038;2023-08-21T10:35:20;19.77;;;15.13;;
19189;SDS011;9727;50.200;19.038;2023-08-21T10:43:43;16.48;;;13.57;;
19189;SDS011;9727;50.200;19.038;2023-08-21T10:46:11;16.27;;;13.88;;
19189;SDS011;9727;50.200;19.038;2023-08-21T10:48:39;16.67;;;14.88;;
19189;SDS011;9727;50.200;19.038;2023-08-21T10:51:15;18.05;;;14.30;;
19189;SDS011;9727;50.200;19.038;2023-08-21T10:53:46;17.17;;;14.82;;
19189;SDS011;9727;50.200;19.038;2023-08-21T10:56:16;16.05;;;14.45;;
19189;SDS011;9727;50.200;19.038;2023-08-21T10:58:45;21.42;;;14.80;;
19189;SDS011;9727;50.200;19.038;2023-08-21T11:01:18;16.50;;;14.35;;
19189;SDS011;9727;50.200;19.038;2023-08-21T11:03:50;16.15;;;14.45;;
19189;SDS011;9727;50.200;19.038;2023-08-21T11:06:18;16.30;;;14.38;;
19189;SDS011;9727;50.200;19.038;2023-08-21T11:08:45;19.40;;;15.30;;
19189;SDS011;9727;50.200;19.038;2023-08-21T11:11:16;16.65;;;14.73;;
19189;SDS011;9727;50.200;19.038;2023-08-21T11:13:51;16.10;;;14.50;;
19189;SDS011;9727;50.200;19.038;2023-08-21T11:16:19;16.10;;;14.43;;
19189;SDS011;9727;50.200;19.038;2023-08-21T11:18:46;17.23;;;13.77;;
19189;SDS011;9727;50.200;19.038;2023-08-21T11:21:13;17.40;;;15.57;;
19189;SDS011;9727;50.200;19.038;2023-08-21T11:23:41;17.88;;;14.13;;
19189;SDS011;9727;50.200;19.038;2023-08-21T11:26:10;17.17;;;14.73;;
19189;SDS011;9727;50.200;19.038;2023-08-21T11:28:41;17.13;;;14.25;;
19189;SDS011;9727;50.200;19.038;2023-08-21T11:31:07;18.00;;;15.18;;
19189;SDS011;9727;50.200;19.038;2023-08-21T11:33:41;15.60;;;13.93;;
19189;SDS011;9727;50.200;19.038;2023-08-21T11:36:15;17.00;;;15.25;;
19189;SDS011;9727;50.200;19.038;2023-08-21T11:38:41;17.00;;;15.13;;
19189;SDS011;9727;50.200;19.038;2023-08-21T11:41:08;19.15;;;15.73;;
19189;SDS011;9727;50.200;19.038;2023-08-21T11:43:41;16.73;;;15.02;;
19189;SDS011;9727;50.200;19.038;2023-08-21T11:46:09;16.58;;;14.85;;
19189;SDS011;9727;50.200;19.038;2023-08-21T11:48:41;16.58;;;14.75;;
19189;SDS011;9727;50.200;19.038;2023-08-21T11:51:08;17.00;;;14.65;;
19189;SDS011;9727;50.200;19.038;2023-08-21T11:53:38;16.95;;;15.25;;
19189;SDS011;9727;50.200;19.038;2023-08-21T11:56:09;17.00;;;15.35;;
19189;SDS011;9727;50.200;19.038;2023-08-21T11:58:38;17.48;;;15.15;;
19189;SDS011;9727;50.200;19.038;2023-08-21T12:01:05;16.25;;;14.43;;
19189;SDS011;9727;50.200;19.038;2023-08-21T12:03:41;18.63;;;15.57;;
19189;SDS011;9727;50.200;19.038;2023-08-21T12:06:09;17.98;;;15.02;;
19189;SDS011;9727;50.200;19.038;2023-08-21T12:08:38;16.38;;;14.50;;
19189;SDS011;9727;50.200;19.038;2023-08-21T12:11:05;19.13;;;16.70;;
19189;SDS011;9727;50.200;19.038;2023-08-21T12:13:32;17.60;;;15.80;;
19189;SDS011;9727;50.200;19.038;2023-08-21T12:16:12;18.02;;;15.98;;
19189;SDS011;9727;50.200;19.038;2023-08-21T12:18:39;17.65;;;15.77;;
19189;SDS011;9727;50.200;19.038;2023-08-21T12:21:06;21.05;;;16.55;;
19189;SDS011;9727;50.200;19.038;2023-08-21T12:23:38;19.80;;;17.00;;
19189;SDS011;9727;50.200;19.038;2023-08-21T12:26:05;18.83;;;15.68;;
19189;SDS011;9727;50.200;19.038;2023-08-21T12:28:31;18.98;;;15.45;;
19189;SDS011;9727;50.200;19.038;2023-08-21T12:30:58;16.20;;;14.38;;
19189;SDS011;9727;50.200;19.038;2023-08-21T12:33:28;18.50;;;15.52;;
19189;SDS011;9727;50.200;19.038;2023-08-21T12:35:54;16.58;;;13.43;;
19189;SDS011;9727;50.200;19.038;2023-08-21T12:38:21;17.42;;;14.60;;
19189;SDS011;9727;50.200;19.038;2023-08-21T12:40:51;15.57;;;13.82;;
19189;SDS011;9727;50.200;19.038;2023-08-21T12:43:18;15.73;;;13.57;;
19189;SDS011;9727;50.200;19.038;2023-08-21T12:45:45;17.42;;;13.63;;
19189;SDS011;9727;50.200;19.038;2023-08-21T12:48:13;17.42;;;14.30;;
19189;SDS011;9727;50.200;19.038;2023-08-21T12:50:40;16.33;;;13.75;;
19189;SDS011;9727;50.200;19.038;2023-08-21T12:53:06;16.55;;;14.75;;
19189;SDS011;9727;50.200;19.038;2023-08-21T12:58:20;15.30;;;13.77;;
19189;SDS011;9727;50.200;19.038;2023-08-21T13:00:56;15.27;;;13.35;;
19189;SDS011;9727;50.200;19.038;2023-08-21T13:03:43;14.65;;;13.15;;
19189;SDS011;9727;50.200;19.038;2023-08-21T13:06:09;14.10;;;12.80;;
19189;SDS011;9727;50.200;19.038;2023-08-21T13:08:39;14.13;;;12.77;;
19189;SDS011;9727;50.200;19.038;2023-08-21T13:11:06;16.48;;;12.68;;
19189;SDS011;9727;50.200;19.038;2023-08-21T13:13:35;12.35;;;11.05;;
19189;SDS011;9727;50.200;19.038;2023-08-21T13:16:05;13.70;;;12.27;;
19189;SDS011;9727;50.200;19.038;2023-08-21T13:18:41;13.95;;;12.45;;
19189;SDS011;9727;50.200;19.038;2023-08-21T13:21:10;14.82;;;11.93;;
19189;SDS011;9727;50.200;19.038;2023-08-21T13:23:37;15.70;;;13.52;;
19189;SDS011;9727;50.200;19.038;2023-08-21T13:26:07;13.52;;;12.32;;
19189;SDS011;9727;50.200;19.038;2023-08-21T13:28:40;13.23;;;11.82;;
19189;SDS011;9727;50.200;19.038;2023-08-21T13:31:07;13.88;;;12.45;;
19189;SDS011;9727;50.200;19.038;2023-08-21T13:33:43;14.27;;;12.30;;
19189;SDS011;9727;50.200;19.038;2023-08-21T13:36:11;13.30;;;11.95;;
19189;SDS011;9727;50.200;19.038;2023-08-21T13:38:40;13.30;;;11.90;;
19189;SDS011;9727;50.200;19.038;2023-08-21T13:41:09;14.40;;;12.88;;
19189;SDS011;9727;50.200;19.038;2023-08-21T13:43:43;14.25;;;12.30;;
19189;SDS011;9727;50.200;19.038;2023-08-21T13:46:12;14.55;;;11.98;;
19189;SDS011;9727;50.200;19.038;2023-08-21T13:48:39;13.20;;;11.73;;
19189;SDS011;9727;50.200;19.038;2023-08-21T13:51:08;12.95;;;11.65;;
19189;SDS011;9727;50.200;19.038;2023-08-21T13:53:38;14.77;;;11.45;;
19189;SDS011;9727;50.200;19.038;2023-08-21T13:56:05;13.23;;;11.68;;
19189;SDS011;9727;50.200;19.038;2023-08-21T13:58:31;13.55;;;12.15;;
19189;SDS011;9727;50.200;19.038;2023-08-21T14:01:03;14.75;;;12.15;;
19189;SDS011;9727;50.200;19.038;2023-08-21T14:03:37;13.55;;;12.23;;
19189;SDS011;9727;50.200;19.038;2023-08-21T14:06:07;14.65;;;12.13;;
19189;SDS011;9727;50.200;19.038;2023-08-21T14:08:39;13.15;;;11.45;;
19189;SDS011;9727;50.200;19.038;2023-08-21T14:11:06;13.43;;;12.10;;
19189;SDS011;9727;50.200;19.038;2023-08-21T14:13:32;15.65;;;12.32;;
19189;SDS011;9727;50.200;19.038;2023-08-21T14:16:09;16.45;;;12.30;;
19189;SDS011;9727;50.200;19.038;2023-08-21T14:18:42;12.98;;;11.68;;
19189;SDS011;9727;50.200;19.038;2023-08-21T14:21:09;12.55;;;11.35;;
19189;SDS011;9727;50.200;19.038;2023-08-21T14:23:38;15.88;;;12.15;;
19189;SDS011;9727;50.200;19.038;2023-08-21T14:26:05;14.75;;;12.00;;
19189;SDS011;9727;50.200;19.038;2023-08-21T14:28:32;14.50;;;12.15;;
19189;SDS011;9727;50.200;19.038;2023-08-21T14:31:04;14.98;;;13.02;;
19189;SDS011;9727;50.200;19.038;2023-08-21T14:33:40;15.75;;;13.15;;
19189;SDS011;9727;50.200;19.038;2023-08-21T14:36:07;15.88;;;13.05;;
19189;SDS011;9727;50.200;19.038;2023-08-21T14:38:39;14.80;;;12.20;;